sensor_id;sensor_type;location;lat;lon;timestamp;pressure;altitude;pressure_sealevel;temperature;humidity
74075;BME280;62428;51.412;5.432;2023-04-03T00:01:07;102788.16;;;2.32;84.47
74075;BME280;62428;51.412;5.432;2023-04-03T00:03:33;102790.19;;;2.30;84.53
74075;BME280;62428;51.412;5.432;2023-04-03T00:05:58;102787.91;;;2.27;84.46
74075;BME280;62428;51.412;5.432;2023-04-03T00:08:24;102801.34;;;2.25;84.97
74075;BME280;62428;51.412;5.432;2023-04-03T00:10:49;102793.38;;;2.25;85.06
74075;BME280;62428;51.412;5.432;2023-04-03T00:13:15;102798.69;;;2.25;85.03
74075;BME280;62428;51.412;5.432;2023-04-03T00:15:41;102793.38;;;2.25;85.31
74075;BME280;62428;51.412;5.432;2023-04-03T00:18:06;102783.78;;;2.24;85.00
74075;BME280;62428;51.412;5.432;2023-04-03T00:20:34;102794.59;;;2.23;84.93
74075;BME280;62428;51.412;5.432;2023-04-03T00:23:00;102802.34;;;2.24;84.83
74075;BME280;62428;51.412;5.432;2023-04-03T00:25:26;102806.22;;;2.22;84.91
74075;BME280;62428;51.412;5.432;2023-04-03T00:27:51;102801.72;;;2.22;85.17
74075;BME280;62428;51.412;5.432;2023-04-03T00:30:18;102803.72;;;2.20;84.88
74075;BME280;62428;51.412;5.432;2023-04-03T00:32:45;102812.72;;;2.19;85.00
74075;BME280;62428;51.412;5.432;2023-04-03T00:35:12;102804.75;;;2.19;85.18
74075;BME280;62428;51.412;5.432;2023-04-03T00:37:40;102804.09;;;2.17;85.10
74075;BME280;62428;51.412;5.432;2023-04-03T00:40:06;102806.75;;;2.17;85.12
74075;BME280;62428;51.412;5.432;2023-04-03T00:42:32;102798.38;;;2.14;85.47
74075;BME280;62428;51.412;5.432;2023-04-03T00:47:23;102815.00;;;2.07;85.22
74075;BME280;62428;51.412;5.432;2023-04-03T00:49:50;102805.63;;;2.05;85.31
74075;BME280;62428;51.412;5.432;2023-04-03T00:52:19;102801.94;;;2.06;85.68
74075;BME280;62428;51.412;5.432;2023-04-03T00:54:49;102800.31;;;2.05;85.77
74075;BME280;62428;51.412;5.432;2023-04-03T00:57:17;102805.63;;;2.05;85.92
74075;BME280;62428;51.412;5.432;2023-04-03T00:59:50;102808.28;;;2.05;85.64
74075;BME280;62428;51.412;5.432;2023-04-03T01:02:17;102819.06;;;2.03;85.66
74075;BME280;62428;51.412;5.432;2023-04-03T01:04:43;102818.25;;;2.03;85.71
74075;BME280;62428;51.412;5.432;2023-04-03T01:07:14;102814.94;;;2.01;85.67
74075;BME280;62428;51.412;5.432;2023-04-03T01:09:40;102817.78;;;1.99;85.62
74075;BME280;62428;51.412;5.432;2023-04-03T01:14:42;102817.69;;;1.92;85.58
74075;BME280;62428;51.412;5.432;2023-04-03T01:17:48;102820.88;;;1.88;85.13
74075;BME280;62428;51.412;5.432;2023-04-03T01:20:26;102816.97;;;1.84;85.34
74075;BME280;62428;51.412;5.432;2023-04-03T01:28:07;102820.00;;;1.81;85.54
74075;BME280;62428;51.412;5.432;2023-04-03T01:30:44;102819.56;;;1.77;85.20
74075;BME280;62428;51.412;5.432;2023-04-03T01:33:11;102821.75;;;1.73;85.60
74075;BME280;62428;51.412;5.432;2023-04-03T01:35:37;102818.44;;;1.71;85.68
74075;BME280;62428;51.412;5.432;2023-04-03T01:38:02;102818.66;;;1.70;85.53
74075;BME280;62428;51.412;5.432;2023-04-03T01:40:28;102816.00;;;1.70;85.64
74075;BME280;62428;51.412;5.432;2023-04-03T01:42:53;102821.66;;;1.67;85.68
74075;BME280;62428;51.412;5.432;2023-04-03T01:45:18;102823.28;;;1.68;85.71
74075;BME280;62428;51.412;5.432;2023-04-03T01:47:44;102823.03;;;1.63;85.36
74075;BME280;62428;51.412;5.432;2023-04-03T01:50:10;102825.41;;;1.58;85.41
74075;BME280;62428;51.412;5.432;2023-04-03T01:52:35;102820.81;;;1.51;85.53
74075;BME280;62428;51.412;5.432;2023-04-03T01:55:00;102820.19;;;1.49;86.06
74075;BME280;62428;51.412;5.432;2023-04-03T01:57:26;102817.75;;;1.48;85.93
74075;BME280;62428;51.412;5.432;2023-04-03T01:59:51;102818.28;;;1.43;85.82
74075;BME280;62428;51.412;5.432;2023-04-03T02:02:17;102813.16;;;1.42;86.23
74075;BME280;62428;51.412;5.432;2023-04-03T02:04:42;102826.75;;;1.39;85.85
74075;BME280;62428;51.412;5.432;2023-04-03T02:07:07;102819.53;;;1.32;85.96
74075;BME280;62428;51.412;5.432;2023-04-03T02:09:33;102820.91;;;1.28;85.93
74075;BME280;62428;51.412;5.432;2023-04-03T02:11:58;102824.53;;;1.27;86.17
74075;BME280;62428;51.412;5.432;2023-04-03T02:14:23;102818.63;;;1.25;86.23
74075;BME280;62428;51.412;5.432;2023-04-03T02:16:49;102828.38;;;1.25;86.35
74075;BME280;62428;51.412;5.432;2023-04-03T02:19:15;102828.91;;;1.20;86.02
74075;BME280;62428;51.412;5.432;2023-04-03T02:21:41;102820.16;;;1.20;86.29
74075;BME280;62428;51.412;5.432;2023-04-03T02:24:06;102820.16;;;1.20;86.33
74075;BME280;62428;51.412;5.432;2023-04-03T02:26:31;102826.44;;;1.19;86.05
74075;BME280;62428;51.412;5.432;2023-04-03T02:28:57;102826.81;;;1.15;86.45
74075;BME280;62428;51.412;5.432;2023-04-03T02:31:22;102821.53;;;1.15;86.58
74075;BME280;62428;51.412;5.432;2023-04-03T02:33:49;102824.34;;;1.14;86.36
74075;BME280;62428;51.412;5.432;2023-04-03T02:36:14;102828.19;;;1.11;87.02
74075;BME280;62428;51.412;5.432;2023-04-03T02:38:39;102826.00;;;1.15;87.10
74075;BME280;62428;51.412;5.432;2023-04-03T02:41:08;102825.00;;;1.16;87.57
74075;BME280;62428;51.412;5.432;2023-04-03T02:43:34;102829.09;;;1.19;87.55
74075;BME280;62428;51.412;5.432;2023-04-03T02:45:59;102833.06;;;1.23;87.81
74075;BME280;62428;51.412;5.432;2023-04-03T02:48:25;102835.13;;;1.27;87.50
74075;BME280;62428;51.412;5.432;2023-04-03T02:50:51;102833.13;;;1.29;87.47
74075;BME280;62428;51.412;5.432;2023-04-03T02:53:17;102842.56;;;1.32;87.31
74075;BME280;62428;51.412;5.432;2023-04-03T02:55:42;102844.81;;;1.35;87.57
74075;BME280;62428;51.412;5.432;2023-04-03T02:58:08;102841.81;;;1.38;87.55
74075;BME280;62428;51.412;5.432;2023-04-03T03:00:34;102850.22;;;1.42;87.61
74075;BME280;62428;51.412;5.432;2023-04-03T03:03:00;102849.06;;;1.44;87.54
74075;BME280;62428;51.412;5.432;2023-04-03T03:05:26;102851.50;;;1.46;87.43
74075;BME280;62428;51.412;5.432;2023-04-03T03:07:51;102846.22;;;1.46;87.42
74075;BME280;62428;51.412;5.432;2023-04-03T03:10:17;102843.22;;;1.49;87.56
74075;BME280;62428;51.412;5.432;2023-04-03T03:12:42;102847.31;;;1.51;87.44
74075;BME280;62428;51.412;5.432;2023-04-03T03:15:08;102845.31;;;1.53;87.28
74075;BME280;62428;51.412;5.432;2023-04-03T03:17:33;102840.03;;;1.53;87.04
74075;BME280;62428;51.412;5.432;2023-04-03T03:19:59;102844.31;;;1.54;87.14
74075;BME280;62428;51.412;5.432;2023-04-03T03:22:25;102838.19;;;1.54;87.13
74075;BME280;62428;51.412;5.432;2023-04-03T03:24:51;102840.66;;;1.56;86.73
74075;BME280;62428;51.412;5.432;2023-04-03T03:27:16;102843.31;;;1.56;86.81
74075;BME280;62428;51.412;5.432;2023-04-03T03:29:42;102834.53;;;1.55;86.77
74075;BME280;62428;51.412;5.432;2023-04-03T03:32:08;102834.72;;;1.53;86.88
74075;BME280;62428;51.412;5.432;2023-04-03T03:34:33;102847.97;;;1.53;86.93
74075;BME280;62428;51.412;5.432;2023-04-03T03:36:59;102846.31;;;1.52;87.08
74075;BME280;62428;51.412;5.432;2023-04-03T03:39:24;102857.91;;;1.51;86.59
74075;BME280;62428;51.412;5.432;2023-04-03T03:41:49;102857.09;;;1.51;86.86
74075;BME280;62428;51.412;5.432;2023-04-03T03:44:15;102847.53;;;1.50;86.85
74075;BME280;62428;51.412;5.432;2023-04-03T03:46:40;102866.88;;;1.50;86.65
74075;BME280;62428;51.412;5.432;2023-04-03T03:49:06;102861.75;;;1.49;86.70
74075;BME280;62428;51.412;5.432;2023-04-03T03:51:31;102858.13;;;1.50;86.79
74075;BME280;62428;51.412;5.432;2023-04-03T03:53:56;102862.56;;;1.49;86.70
74075;BME280;62428;51.412;5.432;2023-04-03T03:56:22;102861.94;;;1.47;86.73
74075;BME280;62428;51.412;5.432;2023-04-03T03:58:47;102869.69;;;1.49;86.73
74075;BME280;62428;51.412;5.432;2023-04-03T04:01:14;102864.56;;;1.47;86.47
74075;BME280;62428;51.412;5.432;2023-04-03T04:03:40;102863.94;;;1.45;86.52
74075;BME280;62428;51.412;5.432;2023-04-03T04:06:06;102863.13;;;1.45;86.53
74075;BME280;62428;51.412;5.432;2023-04-03T04:08:31;102867.59;;;1.44;86.32
74075;BME280;62428;51.412;5.432;2023-04-03T04:10:57;102865.94;;;1.43;86.11
74075;BME280;62428;51.412;5.432;2023-04-03T04:13:22;102867.97;;;1.41;86.40
74075;BME280;62428;51.412;5.432;2023-04-03T04:15:47;102861.19;;;1.39;86.37
74075;BME280;62428;51.412;5.432;2023-04-03T04:18:13;102864.03;;;1.37;86.22
74075;BME280;62428;51.412;5.432;2023-04-03T04:20:38;102859.56;;;1.38;86.04
74075;BME280;62428;51.412;5.432;2023-04-03T04:23:04;102858.06;;;1.35;86.20
74075;BME280;62428;51.412;5.432;2023-04-03T04:25:30;102864.22;;;1.36;86.29
74075;BME280;62428;51.412;5.432;2023-04-03T04:27:55;102866.22;;;1.33;85.89
74075;BME280;62428;51.412;5.432;2023-04-03T04:30:20;102861.09;;;1.32;85.76
74075;BME280;62428;51.412;5.432;2023-04-03T04:32:46;102862.94;;;1.31;85.99
74075;BME280;62428;51.412;5.432;2023-04-03T04:35:12;102867.22;;;1.32;85.73
74075;BME280;62428;51.412;5.432;2023-04-03T04:37:37;102870.69;;;1.33;85.63
74075;BME280;62428;51.412;5.432;2023-04-03T04:40:03;102858.44;;;1.32;85.45
74075;BME280;62428;51.412;5.432;2023-04-03T04:42:28;102861.91;;;1.32;84.62
74075;BME280;62428;51.412;5.432;2023-04-03T04:44:54;102864.91;;;1.29;85.18
74075;BME280;62428;51.412;5.432;2023-04-03T04:47:19;102868.59;;;1.28;85.29
74075;BME280;62428;51.412;5.432;2023-04-03T04:49:44;102874.88;;;1.27;85.14
74075;BME280;62428;51.412;5.432;2023-04-03T04:52:10;102878.72;;;1.25;85.03
74075;BME280;62428;51.412;5.432;2023-04-03T04:54:35;102881.69;;;1.22;85.17
74075;BME280;62428;51.412;5.432;2023-04-03T04:57:01;102886.34;;;1.20;85.43
74075;BME280;62428;51.412;5.432;2023-04-03T04:59:26;102885.53;;;1.19;85.06
74075;BME280;62428;51.412;5.432;2023-04-03T05:01:51;102885.72;;;1.18;85.37
74075;BME280;62428;51.412;5.432;2023-04-03T05:04:17;102883.06;;;1.18;85.20
74075;BME280;62428;51.412;5.432;2023-04-03T05:06:42;102886.91;;;1.15;85.48
74075;BME280;62428;51.412;5.432;2023-04-03T05:09:08;102887.91;;;1.14;85.29
74075;BME280;62428;51.412;5.432;2023-04-03T05:11:35;102886.44;;;1.11;85.27
74075;BME280;62428;51.412;5.432;2023-04-03T05:14:00;102888.25;;;1.11;85.34
74075;BME280;62428;51.412;5.432;2023-04-03T05:16:26;102889.44;;;1.08;85.43
74075;BME280;62428;51.412;5.432;2023-04-03T05:18:51;102891.44;;;1.06;85.47
74075;BME280;62428;51.412;5.432;2023-04-03T05:21:16;102896.09;;;1.04;85.44
74075;BME280;62428;51.412;5.432;2023-04-03T05:23:43;102898.75;;;1.04;85.28
74075;BME280;62428;51.412;5.432;2023-04-03T05:26:08;102895.25;;;1.04;85.19
74075;BME280;62428;51.412;5.432;2023-04-03T05:28:34;102901.56;;;1.03;85.39
74075;BME280;62428;51.412;5.432;2023-04-03T05:30:59;102898.91;;;1.03;85.36
74075;BME280;62428;51.412;5.432;2023-04-03T05:33:25;102901.56;;;1.03;85.61
74075;BME280;62428;51.412;5.432;2023-04-03T05:35:51;102912.31;;;1.01;85.88
74075;BME280;62428;51.412;5.432;2023-04-03T05:38:17;102913.97;;;1.02;86.02
74075;BME280;62428;51.412;5.432;2023-04-03T05:40:42;102913.63;;;1.05;85.42
74075;BME280;62428;51.412;5.432;2023-04-03T05:43:07;102912.63;;;1.06;85.78
74075;BME280;62428;51.412;5.432;2023-04-03T05:45:33;102916.91;;;1.07;85.46
74075;BME280;62428;51.412;5.432;2023-04-03T05:47:58;102919.38;;;1.09;85.58
74075;BME280;62428;51.412;5.432;2023-04-03T05:50:23;102913.25;;;1.08;85.74
74075;BME280;62428;51.412;5.432;2023-04-03T05:52:49;102918.22;;;1.11;85.45
74075;BME280;62428;51.412;5.432;2023-04-03T05:55:16;102916.38;;;1.12;85.36
74075;BME280;62428;51.412;5.432;2023-04-03T05:57:42;102917.19;;;1.12;85.71
74075;BME280;62428;51.412;5.432;2023-04-03T06:00:10;102906.59;;;1.12;85.17
74075;BME280;62428;51.412;5.432;2023-04-03T06:02:37;102908.63;;;1.10;85.01
74075;BME280;62428;51.412;5.432;2023-04-03T06:05:03;102914.56;;;1.12;85.15
74075;BME280;62428;51.412;5.432;2023-04-03T06:07:29;102910.06;;;1.13;85.47
74075;BME280;62428;51.412;5.432;2023-04-03T06:09:55;102922.97;;;1.16;85.30
74075;BME280;62428;51.412;5.432;2023-04-03T06:12:22;102912.19;;;1.18;84.66
74075;BME280;62428;51.412;5.432;2023-04-03T06:14:48;102924.06;;;1.22;84.65
74075;BME280;62428;51.412;5.432;2023-04-03T06:17:15;102930.88;;;1.24;84.83
74075;BME280;62428;51.412;5.432;2023-04-03T06:19:40;102925.19;;;1.27;84.98
74075;BME280;62428;51.412;5.432;2023-04-03T06:22:06;102927.66;;;1.29;84.44
74075;BME280;62428;51.412;5.432;2023-04-03T06:24:31;102930.94;;;1.31;83.85
74075;BME280;62428;51.412;5.432;2023-04-03T06:26:57;102930.59;;;1.34;83.73
74075;BME280;62428;51.412;5.432;2023-04-03T06:29:23;102939.19;;;1.36;83.95
74075;BME280;62428;51.412;5.432;2023-04-03T06:31:50;102929.06;;;1.40;84.00
74075;BME280;62428;51.412;5.432;2023-04-03T06:34:15;102933.00;;;1.44;83.67
74075;BME280;62428;51.412;5.432;2023-04-03T06:36:42;102944.69;;;1.49;84.00
74075;BME280;62428;51.412;5.432;2023-04-03T06:39:11;102942.50;;;1.53;83.33
74075;BME280;62428;51.412;5.432;2023-04-03T06:41:38;102942.81;;;1.58;83.77
74075;BME280;62428;51.412;5.432;2023-04-03T06:44:03;102947.59;;;1.63;82.80
74075;BME280;62428;51.412;5.432;2023-04-03T06:46:29;102941.72;;;1.67;82.25
74075;BME280;62428;51.412;5.432;2023-04-03T06:48:54;102947.50;;;1.71;83.15
74075;BME280;62428;51.412;5.432;2023-04-03T06:51:28;102952.25;;;1.76;81.99
74075;BME280;62428;51.412;5.432;2023-04-03T06:53:55;102953.38;;;1.81;81.13
74075;BME280;62428;51.412;5.432;2023-04-03T06:56:22;102946.41;;;1.80;80.86
74075;BME280;62428;51.412;5.432;2023-04-03T06:58:48;102952.81;;;1.86;81.14
74075;BME280;62428;51.412;5.432;2023-04-03T07:01:15;102960.50;;;1.96;80.57
74075;BME280;62428;51.412;5.432;2023-04-03T07:03:41;102959.78;;;2.02;79.88
74075;BME280;62428;51.412;5.432;2023-04-03T07:06:09;102962.34;;;2.10;79.87
74075;BME280;62428;51.412;5.432;2023-04-03T07:08:35;102961.25;;;2.19;79.62
74075;BME280;62428;51.412;5.432;2023-04-03T07:11:01;102963.44;;;2.30;79.11
74075;BME280;62428;51.412;5.432;2023-04-03T07:13:27;102965.63;;;2.42;79.02
74075;BME280;62428;51.412;5.432;2023-04-03T07:15:53;102972.75;;;2.56;77.96
74075;BME280;62428;51.412;5.432;2023-04-03T07:18:18;102966.31;;;2.65;76.92
74075;BME280;62428;51.412;5.432;2023-04-03T07:20:44;102972.16;;;2.76;76.53
74075;BME280;62428;51.412;5.432;2023-04-03T07:23:10;102971.03;;;2.85;76.32
74075;BME280;62428;51.412;5.432;2023-04-03T07:25:36;102964.19;;;2.97;75.82
74075;BME280;62428;51.412;5.432;2023-04-03T07:28:01;102978.09;;;3.14;75.73
74075;BME280;62428;51.412;5.432;2023-04-03T07:30:27;102983.78;;;3.33;75.88
74075;BME280;62428;51.412;5.432;2023-04-03T07:32:52;102973.13;;;3.54;74.47
74075;BME280;62428;51.412;5.432;2023-04-03T07:35:19;102978.59;;;3.74;73.37
74075;BME280;62428;51.412;5.432;2023-04-03T07:37:44;102973.75;;;3.84;71.85
74075;BME280;62428;51.412;5.432;2023-04-03T07:40:10;102976.72;;;3.96;72.78
74075;BME280;62428;51.412;5.432;2023-04-03T07:42:35;102982.78;;;4.18;72.33
74075;BME280;62428;51.412;5.432;2023-04-03T07:45:02;102984.50;;;4.39;71.66
74075;BME280;62428;51.412;5.432;2023-04-03T07:47:28;102980.91;;;4.60;70.34
74075;BME280;62428;51.412;5.432;2023-04-03T07:49:53;102985.91;;;4.77;70.52
74075;BME280;62428;51.412;5.432;2023-04-03T07:52:18;102984.50;;;4.88;69.09
74075;BME280;62428;51.412;5.432;2023-04-03T07:54:44;102984.34;;;5.09;67.59
74075;BME280;62428;51.412;5.432;2023-04-03T07:57:09;102983.13;;;5.18;66.64
74075;BME280;62428;51.412;5.432;2023-04-03T07:59:35;102985.19;;;5.30;67.31
74075;BME280;62428;51.412;5.432;2023-04-03T08:02:01;102985.59;;;5.47;67.33
74075;BME280;62428;51.412;5.432;2023-04-03T08:04:26;102996.69;;;5.70;66.94
74075;BME280;62428;51.412;5.432;2023-04-03T08:06:52;102988.25;;;5.93;65.26
74075;BME280;62428;51.412;5.432;2023-04-03T08:09:18;102992.56;;;6.01;63.90
74075;BME280;62428;51.412;5.432;2023-04-03T08:11:44;102984.31;;;6.16;64.60
74075;BME280;62428;51.412;5.432;2023-04-03T08:14:10;102986.31;;;6.41;62.36
74075;BME280;62428;51.412;5.432;2023-04-03T08:16:42;102988.94;;;6.54;61.06
74075;BME280;62428;51.412;5.432;2023-04-03T08:19:07;102988.06;;;6.67;60.78
74075;BME280;62428;51.412;5.432;2023-04-03T08:21:33;103000.72;;;6.85;61.04
74075;BME280;62428;51.412;5.432;2023-04-03T08:23:58;102996.88;;;7.06;60.04
74075;BME280;62428;51.412;5.432;2023-04-03T08:26:24;102992.91;;;7.15;59.77
74075;BME280;62428;51.412;5.432;2023-04-03T08:28:51;102991.03;;;7.22;59.25
74075;BME280;62428;51.412;5.432;2023-04-03T08:31:18;102993.56;;;7.42;57.73
74075;BME280;62428;51.412;5.432;2023-04-03T08:33:44;103000.44;;;7.57;55.00
74075;BME280;62428;51.412;5.432;2023-04-03T08:36:24;103006.75;;;7.62;54.82
74075;BME280;62428;51.412;5.432;2023-04-03T08:38:50;102997.50;;;7.65;53.99
74075;BME280;62428;51.412;5.432;2023-04-03T08:41:20;103005.75;;;7.63;54.31
74075;BME280;62428;51.412;5.432;2023-04-03T08:49:42;103012.16;;;7.81;52.02
74075;BME280;62428;51.412;5.432;2023-04-03T08:52:15;103018.41;;;7.75;51.74
74075;BME280;62428;51.412;5.432;2023-04-03T08:54:56;103013.06;;;7.75;55.01
74075;BME280;62428;51.412;5.432;2023-04-03T08:57:56;103010.78;;;7.97;56.92
74075;BME280;62428;51.412;5.432;2023-04-03T09:00:24;103005.06;;;8.30;51.22
74075;BME280;62428;51.412;5.432;2023-04-03T09:02:53;103008.66;;;8.61;50.53
74075;BME280;62428;51.412;5.432;2023-04-03T09:05:39;103010.34;;;8.74;49.59
74075;BME280;62428;51.412;5.432;2023-04-03T09:08:40;103005.69;;;8.69;50.68
74075;BME280;62428;51.412;5.432;2023-04-03T09:11:24;103004.13;;;8.61;48.45
74075;BME280;62428;51.412;5.432;2023-04-03T09:24:38;103010.16;;;8.57;38.97
74075;BME280;62428;51.412;5.432;2023-04-03T09:27:05;102996.28;;;8.41;40.38
74075;BME280;62428;51.412;5.432;2023-04-03T09:29:37;102998.47;;;8.33;39.96
74075;BME280;62428;51.412;5.432;2023-04-03T09:32:19;103001.81;;;8.28;42.07
74075;BME280;62428;51.412;5.432;2023-04-03T09:34:47;103001.44;;;8.24;38.41
74075;BME280;62428;51.412;5.432;2023-04-03T09:37:35;102999.88;;;8.17;40.45
74075;BME280;62428;51.412;5.432;2023-04-03T09:40:01;103007.75;;;8.12;40.25
74075;BME280;62428;51.412;5.432;2023-04-03T09:42:29;103005.06;;;8.12;39.78
74075;BME280;62428;51.412;5.432;2023-04-03T09:45:01;103014.53;;;8.14;38.99
74075;BME280;62428;51.412;5.432;2023-04-03T09:47:34;103004.03;;;8.13;38.83
74075;BME280;62428;51.412;5.432;2023-04-03T09:52:42;102996.75;;;8.20;39.74
74075;BME280;62428;51.412;5.432;2023-04-03T09:55:21;102983.06;;;8.28;42.43
74075;BME280;62428;51.412;5.432;2023-04-03T09:57:52;102988.94;;;8.37;38.96
74075;BME280;62428;51.412;5.432;2023-04-03T10:00:23;102990.59;;;8.38;40.09
74075;BME280;62428;51.412;5.432;2023-04-03T10:02:55;102981.69;;;8.44;39.35
74075;BME280;62428;51.412;5.432;2023-04-03T10:05:41;102984.75;;;8.41;36.79
74075;BME280;62428;51.412;5.432;2023-04-03T10:10:38;102971.31;;;8.29;36.57
74075;BME280;62428;51.412;5.432;2023-04-03T10:13:15;102965.53;;;8.51;38.01
74075;BME280;62428;51.412;5.432;2023-04-03T10:15:46;102983.19;;;8.70;37.60
74075;BME280;62428;51.412;5.432;2023-04-03T10:23:54;102979.00;;;8.93;38.54
74075;BME280;62428;51.412;5.432;2023-04-03T10:26:38;102962.91;;;8.93;38.04
74075;BME280;62428;51.412;5.432;2023-04-03T10:35:08;102964.09;;;9.09;36.90
74075;BME280;62428;51.412;5.432;2023-04-03T10:40:36;102963.63;;;9.12;35.67
74075;BME280;62428;51.412;5.432;2023-04-03T10:43:11;102953.03;;;9.17;35.44
74075;BME280;62428;51.412;5.432;2023-04-03T10:51:24;102942.09;;;9.30;34.32
74075;BME280;62428;51.412;5.432;2023-04-03T10:54:08;102940.81;;;9.56;35.37
74075;BME280;62428;51.412;5.432;2023-04-03T10:56:45;102926.03;;;9.66;33.88
74075;BME280;62428;51.412;5.432;2023-04-03T10:59:38;102935.81;;;9.72;35.54
74075;BME280;62428;51.412;5.432;2023-04-03T11:02:28;102941.03;;;10.02;31.71
74075;BME280;62428;51.412;5.432;2023-04-03T11:05:03;102937.00;;;10.16;31.32
74075;BME280;62428;51.412;5.432;2023-04-03T11:07:39;102942.69;;;10.44;31.19
74075;BME280;62428;51.412;5.432;2023-04-03T11:13:45;102931.81;;;10.96;33.39
74075;BME280;62428;51.412;5.432;2023-04-03T11:15:43;102935.97;;;11.21;28.99
74075;BME280;62428;51.412;5.432;2023-04-03T11:18:20;102930.59;;;11.38;30.61
74075;BME280;62428;51.412;5.432;2023-04-03T11:21:00;102936.28;;;11.58;29.81
74075;BME280;62428;51.412;5.432;2023-04-03T11:23:36;102909.63;;;11.79;31.25
74075;BME280;62428;51.412;5.432;2023-04-03T11:26:26;102924.81;;;11.85;31.61
74075;BME280;62428;51.412;5.432;2023-04-03T11:28:58;102917.53;;;11.85;30.01
74075;BME280;62428;51.412;5.432;2023-04-03T11:34:34;102913.97;;;12.46;27.98
74075;BME280;62428;51.412;5.432;2023-04-03T11:37:10;102913.09;;;12.67;26.03
74075;BME280;62428;51.412;5.432;2023-04-03T11:39:38;102904.13;;;12.89;27.88
74075;BME280;62428;51.412;5.432;2023-04-03T11:42:16;102909.19;;;13.13;26.95
74075;BME280;62428;51.412;5.432;2023-04-03T11:44:42;102906.47;;;13.13;28.35
74075;BME280;62428;51.412;5.432;2023-04-03T11:47:12;102893.94;;;12.96;28.04
74075;BME280;62428;51.412;5.432;2023-04-03T11:50:04;102888.31;;;13.03;28.14
74075;BME280;62428;51.412;5.432;2023-04-03T12:08:46;102886.09;;;12.62;28.62
74075;BME280;62428;51.412;5.432;2023-04-03T12:19:29;102871.25;;;12.33;30.00
74075;BME280;62428;51.412;5.432;2023-04-03T12:24:32;102875.97;;;12.47;27.73
74075;BME280;62428;51.412;5.432;2023-04-03T12:35:30;102855.41;;;11.31;29.57
74075;BME280;62428;51.412;5.432;2023-04-03T12:44:52;102860.16;;;10.73;30.60
74075;BME280;62428;51.412;5.432;2023-04-03T12:46:45;102847.59;;;10.45;30.29
74075;BME280;62428;51.412;5.432;2023-04-03T12:49:41;102849.38;;;10.27;31.18
74075;BME280;62428;51.412;5.432;2023-04-03T12:52:23;102846.53;;;10.17;31.52
74075;BME280;62428;51.412;5.432;2023-04-03T12:54:52;102841.34;;;9.98;29.85
74075;BME280;62428;51.412;5.432;2023-04-03T12:57:20;102842.66;;;9.84;30.29
74075;BME280;62428;51.412;5.432;2023-04-03T12:59:47;102825.28;;;9.75;30.71
74075;BME280;62428;51.412;5.432;2023-04-03T13:02:27;102821.09;;;9.67;32.48
74075;BME280;62428;51.412;5.432;2023-04-03T13:04:56;102821.44;;;9.71;31.62
74075;BME280;62428;51.412;5.432;2023-04-03T13:07:29;102822.13;;;9.78;30.97
74075;BME280;62428;51.412;5.432;2023-04-03T13:10:18;102823.28;;;9.82;31.91
74075;BME280;62428;51.412;5.432;2023-04-03T13:12:52;102818.06;;;9.75;31.51
74075;BME280;62428;51.412;5.432;2023-04-03T13:15:29;102822.69;;;9.80;31.41
74075;BME280;62428;51.412;5.432;2023-04-03T13:17:55;102813.88;;;9.96;31.05
74075;BME280;62428;51.412;5.432;2023-04-03T13:20:30;102817.22;;;10.15;32.44
74075;BME280;62428;51.412;5.432;2023-04-03T13:23:02;102819.47;;;10.35;31.32
74075;BME280;62428;51.412;5.432;2023-04-03T13:25:32;102820.06;;;10.37;30.95
74075;BME280;62428;51.412;5.432;2023-04-03T13:27:59;102819.59;;;10.57;32.01
74075;BME280;62428;51.412;5.432;2023-04-03T13:33:34;102796.63;;;10.84;32.13
74075;BME280;62428;51.412;5.432;2023-04-03T13:36:23;102802.28;;;11.04;33.63
74075;BME280;62428;51.412;5.432;2023-04-03T13:39:28;102807.50;;;11.11;32.12
74075;BME280;62428;51.412;5.432;2023-04-03T13:41:54;102804.44;;;11.41;30.42
74075;BME280;62428;51.412;5.432;2023-04-03T13:46:46;102801.81;;;11.68;31.08
74075;BME280;62428;51.412;5.432;2023-04-03T13:49:34;102809.38;;;11.93;32.87
74075;BME280;62428;51.412;5.432;2023-04-03T13:52:03;102806.81;;;12.04;30.59
74075;BME280;62428;51.412;5.432;2023-04-03T13:54:46;102799.03;;;12.07;31.67
74075;BME280;62428;51.412;5.432;2023-04-03T13:57:16;102797.81;;;12.20;31.41
74075;BME280;62428;51.412;5.432;2023-04-03T13:59:42;102793.63;;;12.35;30.72
74075;BME280;62428;51.412;5.432;2023-04-03T14:04:47;102802.63;;;12.83;31.88
74075;BME280;62428;51.412;5.432;2023-04-03T14:07:14;102790.53;;;12.85;28.76
74075;BME280;62428;51.412;5.432;2023-04-03T14:09:41;102791.88;;;12.88;29.57
74075;BME280;62428;51.412;5.432;2023-04-03T14:12:17;102775.53;;;13.05;29.74
74075;BME280;62428;51.412;5.432;2023-04-03T14:14:44;102794.88;;;13.34;29.09
74075;BME280;62428;51.412;5.432;2023-04-03T14:17:17;102771.47;;;13.50;28.93
74075;BME280;62428;51.412;5.432;2023-04-03T14:19:44;102776.34;;;13.53;28.87
74075;BME280;62428;51.412;5.432;2023-04-03T14:22:26;102779.97;;;13.90;30.77
74075;BME280;62428;51.412;5.432;2023-04-03T14:24:52;102782.72;;;14.26;29.01
74075;BME280;62428;51.412;5.432;2023-04-03T14:27:39;102768.66;;;14.34;30.01
74075;BME280;62428;51.412;5.432;2023-04-03T14:30:09;102775.16;;;14.43;28.78
74075;BME280;62428;51.412;5.432;2023-04-03T14:32:34;102773.28;;;14.64;28.23
74075;BME280;62428;51.412;5.432;2023-04-03T14:35:01;102782.72;;;14.82;28.21
74075;BME280;62428;51.412;5.432;2023-04-03T14:37:30;102788.69;;;14.84;27.21
74075;BME280;62428;51.412;5.432;2023-04-03T14:39:57;102786.25;;;14.67;27.46
74075;BME280;62428;51.412;5.432;2023-04-03T14:42:27;102796.19;;;15.13;27.92
74075;BME280;62428;51.412;5.432;2023-04-03T14:44:53;102785.41;;;15.78;26.30
74075;BME280;62428;51.412;5.432;2023-04-03T14:47:21;102771.22;;;16.31;25.50
74075;BME280;62428;51.412;5.432;2023-04-03T14:49:47;102781.41;;;16.44;24.95
74075;BME280;62428;51.412;5.432;2023-04-03T14:52:22;102776.44;;;16.86;26.26
74075;BME280;62428;51.412;5.432;2023-04-03T14:54:49;102776.09;;;17.17;25.28